sensor_id;sensor_type;location;lat;lon;timestamp;temperature;humidity
51007;DHT22;37034;47.886;-3.904;2022-09-12T00:01:11;23.30;78.70
51007;DHT22;37034;47.886;-3.904;2022-09-12T00:03:38;23.20;78.40
51007;DHT22;37034;47.886;-3.904;2022-09-12T00:06:37;23.20;78.50
51007;DHT22;37034;47.886;-3.904;2022-09-12T00:08:58;23.30;78.30
51007;DHT22;37034;47.886;-3.904;2022-09-12T00:11:24;23.20;78.10
51007;DHT22;37034;47.886;-3.904;2022-09-12T00:13:50;23.20;78.40
51007;DHT22;37034;47.886;-3.904;2022-09-12T00:16:22;23.20;78.50
51007;DHT22;37034;47.886;-3.904;2022-09-12T00:18:48;23.20;78.10
51007;DHT22;37034;47.886;-3.904;2022-09-12T00:21:15;23.10;78.30
51007;DHT22;37034;47.886;-3.904;2022-09-12T00:23:42;23.10;78.50
51007;DHT22;37034;47.886;-3.904;2022-09-12T00:26:08;23.10;78.20
51007;DHT22;37034;47.886;-3.904;2022-09-12T00:28:36;23.10;78.30
51007;DHT22;37034;47.886;-3.904;2022-09-12T00:31:07;23.10;78.50
51007;DHT22;37034;47.886;-3.904;2022-09-12T00:33:33;23.10;78.30
51007;DHT22;37034;47.886;-3.904;2022-09-12T00:36:02;23.10;78.30
51007;DHT22;37034;47.886;-3.904;2022-09-12T00:38:28;23.10;78.40
51007;DHT22;37034;47.886;-3.904;2022-09-12T00:40:54;23.10;78.30
51007;DHT22;37034;47.886;-3.904;2022-09-12T00:43:39;23.00;78.20
51007;DHT22;37034;47.886;-3.904;2022-09-12T00:46:49;23.00;78.20
51007;DHT22;37034;47.886;-3.904;2022-09-12T00:49:24;23.00;78.00
51007;DHT22;37034;47.886;-3.904;2022-09-12T00:51:54;22.90;77.50
51007;DHT22;37034;47.886;-3.904;2022-09-12T00:54:25;22.90;77.80
51007;DHT22;37034;47.886;-3.904;2022-09-12T00:56:55;23.00;77.60
51007;DHT22;37034;47.886;-3.904;2022-09-12T00:59:38;22.90;77.20
51007;DHT22;37034;47.886;-3.904;2022-09-12T01:02:05;22.90;77.10
51007;DHT22;37034;47.886;-3.904;2022-09-12T01:04:31;23.00;76.90
51007;DHT22;37034;47.886;-3.904;2022-09-12T01:06:58;23.00;76.70
51007;DHT22;37034;47.886;-3.904;2022-09-12T01:09:24;23.00;77.10
51007;DHT22;37034;47.886;-3.904;2022-09-12T01:11:51;22.90;76.70
51007;DHT22;37034;47.886;-3.904;2022-09-12T01:14:18;22.90;76.80
51007;DHT22;37034;47.886;-3.904;2022-09-12T01:16:45;22.90;76.80
51007;DHT22;37034;47.886;-3.904;2022-09-12T01:19:37;22.90;76.80
51007;DHT22;37034;47.886;-3.904;2022-09-12T01:31:04;22.90;76.40
51007;DHT22;37034;47.886;-3.904;2022-09-12T01:37:13;22.90;76.40
51007;DHT22;37034;47.886;-3.904;2022-09-12T01:39:44;22.90;76.00
51007;DHT22;37034;47.886;-3.904;2022-09-12T01:45:08;22.90;75.90
51007;DHT22;37034;47.886;-3.904;2022-09-12T01:48:20;22.80;75.70
51007;DHT22;37034;47.886;-3.904;2022-09-12T01:53:53;22.80;75.30
51007;DHT22;37034;47.886;-3.904;2022-09-12T01:56:27;22.80;75.50
51007;DHT22;37034;47.886;-3.904;2022-09-12T02:01:39;22.80;75.40
51007;DHT22;37034;47.886;-3.904;2022-09-12T02:04:22;22.80;76.10
51007;DHT22;37034;47.886;-3.904;2022-09-12T02:07:00;22.80;75.30
51007;DHT22;37034;47.886;-3.904;2022-09-12T02:09:35;22.80;75.40
51007;DHT22;37034;47.886;-3.904;2022-09-12T02:12:03;22.80;75.40
51007;DHT22;37034;47.886;-3.904;2022-09-12T02:14:33;22.80;76.00
51007;DHT22;37034;47.886;-3.904;2022-09-12T02:20:13;22.70;75.20
51007;DHT22;37034;47.886;-3.904;2022-09-12T02:22:30;22.70;75.10
51007;DHT22;37034;47.886;-3.904;2022-09-12T02:25:00;22.70;75.00
51007;DHT22;37034;47.886;-3.904;2022-09-12T02:27:40;22.70;74.40
51007;DHT22;37034;47.886;-3.904;2022-09-12T02:30:08;22.60;74.80
51007;DHT22;37034;47.886;-3.904;2022-09-12T02:32:35;22.50;74.90
51007;DHT22;37034;47.886;-3.904;2022-09-12T02:35:15;22.50;75.20
51007;DHT22;37034;47.886;-3.904;2022-09-12T02:38:04;22.50;75.10
51007;DHT22;37034;47.886;-3.904;2022-09-12T02:40:32;22.60;75.30
51007;DHT22;37034;47.886;-3.904;2022-09-12T02:42:59;22.50;75.10
51007;DHT22;37034;47.886;-3.904;2022-09-12T02:45:25;22.50;75.10
51007;DHT22;37034;47.886;-3.904;2022-09-12T02:47:53;22.50;75.30
51007;DHT22;37034;47.886;-3.904;2022-09-12T02:50:20;22.50;75.40
51007;DHT22;37034;47.886;-3.904;2022-09-12T02:52:46;22.50;75.10
51007;DHT22;37034;47.886;-3.904;2022-09-12T02:55:13;22.40;75.30
51007;DHT22;37034;47.886;-3.904;2022-09-12T02:57:39;22.40;75.40
51007;DHT22;37034;47.886;-3.904;2022-09-12T03:00:05;22.40;75.20
51007;DHT22;37034;47.886;-3.904;2022-09-12T03:10:42;22.40;75.00
51007;DHT22;37034;47.886;-3.904;2022-09-12T03:13:25;22.40;75.20
51007;DHT22;37034;47.886;-3.904;2022-09-12T03:19:10;22.30;75.10
51007;DHT22;37034;47.886;-3.904;2022-09-12T03:22:02;22.30;75.40
51007;DHT22;37034;47.886;-3.904;2022-09-12T03:24:41;22.20;75.40
51007;DHT22;37034;47.886;-3.904;2022-09-12T03:27:51;22.10;75.60
51007;DHT22;37034;47.886;-3.904;2022-09-12T03:30:07;22.10;75.50
51007;DHT22;37034;47.886;-3.904;2022-09-12T03:32:51;22.10;75.60
51007;DHT22;37034;47.886;-3.904;2022-09-12T03:35:19;22.10;75.90
51007;DHT22;37034;47.886;-3.904;2022-09-12T03:37:47;22.10;75.60
51007;DHT22;37034;47.886;-3.904;2022-09-12T03:40:13;22.10;75.60
51007;DHT22;37034;47.886;-3.904;2022-09-12T03:42:40;22.10;75.80
51007;DHT22;37034;47.886;-3.904;2022-09-12T03:45:06;22.10;75.70
51007;DHT22;37034;47.886;-3.904;2022-09-12T03:47:32;22.00;75.60
51007;DHT22;37034;47.886;-3.904;2022-09-12T03:49:58;22.10;75.60
51007;DHT22;37034;47.886;-3.904;2022-09-12T03:52:24;22.10;75.60
51007;DHT22;37034;47.886;-3.904;2022-09-12T03:54:50;22.00;75.50
51007;DHT22;37034;47.886;-3.904;2022-09-12T03:57:15;22.00;75.60
51007;DHT22;37034;47.886;-3.904;2022-09-12T03:59:41;22.00;75.60
51007;DHT22;37034;47.886;-3.904;2022-09-12T04:02:07;22.00;75.60
51007;DHT22;37034;47.886;-3.904;2022-09-12T04:04:34;22.00;75.50
51007;DHT22;37034;47.886;-3.904;2022-09-12T04:06:59;22.00;75.40
51007;DHT22;37034;47.886;-3.904;2022-09-12T04:09:25;22.00;75.40
51007;DHT22;37034;47.886;-3.904;2022-09-12T04:11:51;22.00;75.40
51007;DHT22;37034;47.886;-3.904;2022-09-12T04:14:16;21.90;75.30
51007;DHT22;37034;47.886;-3.904;2022-09-12T04:16:42;21.90;75.70
51007;DHT22;37034;47.886;-3.904;2022-09-12T04:19:09;21.80;76.40
51007;DHT22;37034;47.886;-3.904;2022-09-12T04:21:36;21.80;75.70
51007;DHT22;37034;47.886;-3.904;2022-09-12T04:24:01;21.80;75.80
51007;DHT22;37034;47.886;-3.904;2022-09-12T04:26:27;21.80;75.80
51007;DHT22;37034;47.886;-3.904;2022-09-12T04:28:54;21.80;76.10
51007;DHT22;37034;47.886;-3.904;2022-09-12T04:31:20;21.70;75.90
51007;DHT22;37034;47.886;-3.904;2022-09-12T04:34:01;21.70;75.80
51007;DHT22;37034;47.886;-3.904;2022-09-12T04:36:27;21.70;76.40
51007;DHT22;37034;47.886;-3.904;2022-09-12T04:38:54;21.70;75.90
51007;DHT22;37034;47.886;-3.904;2022-09-12T04:41:22;21.70;75.70
51007;DHT22;37034;47.886;-3.904;2022-09-12T04:43:56;21.80;75.60
51007;DHT22;37034;47.886;-3.904;2022-09-12T04:46:30;21.80;75.80
51007;DHT22;37034;47.886;-3.904;2022-09-12T04:48:56;21.70;75.60
51007;DHT22;37034;47.886;-3.904;2022-09-12T04:51:25;21.70;75.90
51007;DHT22;37034;47.886;-3.904;2022-09-12T04:53:56;21.60;76.00
51007;DHT22;37034;47.886;-3.904;2022-09-12T04:56:23;21.70;76.00
51007;DHT22;37034;47.886;-3.904;2022-09-12T04:58:49;21.70;76.10
51007;DHT22;37034;47.886;-3.904;2022-09-12T05:01:20;21.60;76.20
51007;DHT22;37034;47.886;-3.904;2022-09-12T05:03:47;21.60;76.20
51007;DHT22;37034;47.886;-3.904;2022-09-12T05:06:18;21.60;76.10
51007;DHT22;37034;47.886;-3.904;2022-09-12T05:08:44;21.60;76.10
51007;DHT22;37034;47.886;-3.904;2022-09-12T05:11:21;21.50;76.50
51007;DHT22;37034;47.886;-3.904;2022-09-12T05:13:47;21.40;76.40
51007;DHT22;37034;47.886;-3.904;2022-09-12T05:16:14;21.30;76.90
51007;DHT22;37034;47.886;-3.904;2022-09-12T05:18:41;21.20;77.00
51007;DHT22;37034;47.886;-3.904;2022-09-12T05:21:09;21.30;77.10
51007;DHT22;37034;47.886;-3.904;2022-09-12T05:23:35;21.30;77.10
51007;DHT22;37034;47.886;-3.904;2022-09-12T05:26:02;21.30;77.00
51007;DHT22;37034;47.886;-3.904;2022-09-12T05:28:30;21.30;76.80
51007;DHT22;37034;47.886;-3.904;2022-09-12T05:31:09;21.30;76.90
51007;DHT22;37034;47.886;-3.904;2022-09-12T05:33:36;21.30;77.00
51007;DHT22;37034;47.886;-3.904;2022-09-12T05:36:04;21.30;77.00
51007;DHT22;37034;47.886;-3.904;2022-09-12T05:38:31;21.20;77.00
51007;DHT22;37034;47.886;-3.904;2022-09-12T05:43:35;21.20;77.30
51007;DHT22;37034;47.886;-3.904;2022-09-12T05:46:07;21.20;77.10
51007;DHT22;37034;47.886;-3.904;2022-09-12T05:48:37;21.30;77.20
51007;DHT22;37034;47.886;-3.904;2022-09-12T05:51:09;21.30;77.20
51007;DHT22;37034;47.886;-3.904;2022-09-12T05:53:36;21.30;77.00
51007;DHT22;37034;47.886;-3.904;2022-09-12T05:56:10;21.30;77.00
51007;DHT22;37034;47.886;-3.904;2022-09-12T05:58:40;21.30;77.20
51007;DHT22;37034;47.886;-3.904;2022-09-12T06:01:09;21.40;77.00
51007;DHT22;37034;47.886;-3.904;2022-09-12T06:03:39;21.40;77.00
51007;DHT22;37034;47.886;-3.904;2022-09-12T06:06:06;21.40;77.00
51007;DHT22;37034;47.886;-3.904;2022-09-12T06:08:32;21.40;76.80
51007;DHT22;37034;47.886;-3.904;2022-09-12T06:11:00;21.30;77.00
51007;DHT22;37034;47.886;-3.904;2022-09-12T06:13:26;21.20;77.30
51007;DHT22;37034;47.886;-3.904;2022-09-12T06:15:52;21.20;77.40
51007;DHT22;37034;47.886;-3.904;2022-09-12T06:18:18;21.20;77.50
51007;DHT22;37034;47.886;-3.904;2022-09-12T06:20:45;21.30;77.80
51007;DHT22;37034;47.886;-3.904;2022-09-12T06:23:11;21.30;77.60
51007;DHT22;37034;47.886;-3.904;2022-09-12T06:25:37;21.20;77.60
51007;DHT22;37034;47.886;-3.904;2022-09-12T06:28:02;21.30;77.70
51007;DHT22;37034;47.886;-3.904;2022-09-12T06:30:28;21.30;77.90
51007;DHT22;37034;47.886;-3.904;2022-09-12T06:32:54;21.30;77.80
51007;DHT22;37034;47.886;-3.904;2022-09-12T06:35:21;21.40;77.80
51007;DHT22;37034;47.886;-3.904;2022-09-12T06:37:48;21.40;77.80
51007;DHT22;37034;47.886;-3.904;2022-09-12T06:40:13;21.40;78.00
51007;DHT22;37034;47.886;-3.904;2022-09-12T06:42:39;21.50;78.00
51007;DHT22;37034;47.886;-3.904;2022-09-12T06:45:05;21.60;78.00
51007;DHT22;37034;47.886;-3.904;2022-09-12T06:47:31;21.70;77.90
51007;DHT22;37034;47.886;-3.904;2022-09-12T06:49:57;21.80;77.30
51007;DHT22;37034;47.886;-3.904;2022-09-12T06:52:23;21.80;77.20
51007;DHT22;37034;47.886;-3.904;2022-09-12T06:54:49;21.80;77.30
51007;DHT22;37034;47.886;-3.904;2022-09-12T06:57:14;21.90;77.40
51007;DHT22;37034;47.886;-3.904;2022-09-12T06:59:40;22.00;77.20
51007;DHT22;37034;47.886;-3.904;2022-09-12T07:02:07;22.10;76.90
51007;DHT22;37034;47.886;-3.904;2022-09-12T07:04:33;22.10;77.10
51007;DHT22;37034;47.886;-3.904;2022-09-12T07:07:01;22.20;76.80
51007;DHT22;37034;47.886;-3.904;2022-09-12T07:09:27;22.20;77.30
51007;DHT22;37034;47.886;-3.904;2022-09-12T07:11:55;22.30;77.60
51007;DHT22;37034;47.886;-3.904;2022-09-12T07:14:20;22.40;77.90
51007;DHT22;37034;47.886;-3.904;2022-09-12T07:16:46;22.50;77.50
51007;DHT22;37034;47.886;-3.904;2022-09-12T07:19:11;22.60;77.70
51007;DHT22;37034;47.886;-3.904;2022-09-12T07:21:37;22.70;77.50
51007;DHT22;37034;47.886;-3.904;2022-09-12T07:24:08;22.70;76.80
51007;DHT22;37034;47.886;-3.904;2022-09-12T07:26:34;22.80;76.70
51007;DHT22;37034;47.886;-3.904;2022-09-12T07:29:00;22.80;76.40
51007;DHT22;37034;47.886;-3.904;2022-09-12T07:31:27;22.80;76.90
51007;DHT22;37034;47.886;-3.904;2022-09-12T07:33:52;22.90;76.50
51007;DHT22;37034;47.886;-3.904;2022-09-12T07:36:20;22.90;76.80
51007;DHT22;37034;47.886;-3.904;2022-09-12T07:38:47;22.90;76.60
51007;DHT22;37034;47.886;-3.904;2022-09-12T07:41:20;23.00;76.80
51007;DHT22;37034;47.886;-3.904;2022-09-12T07:43:51;22.90;76.30
51007;DHT22;37034;47.886;-3.904;2022-09-12T07:46:17;23.00;76.50
51007;DHT22;37034;47.886;-3.904;2022-09-12T07:48:43;23.00;75.70
51007;DHT22;37034;47.886;-3.904;2022-09-12T07:51:10;23.10;76.40
51007;DHT22;37034;47.886;-3.904;2022-09-12T07:53:38;23.00;76.10
51007;DHT22;37034;47.886;-3.904;2022-09-12T07:56:06;23.10;76.70
51007;DHT22;37034;47.886;-3.904;2022-09-12T07:58:33;23.30;76.50
51007;DHT22;37034;47.886;-3.904;2022-09-12T08:01:06;23.40;76.30
51007;DHT22;37034;47.886;-3.904;2022-09-12T08:03:34;23.70;76.60
51007;DHT22;37034;47.886;-3.904;2022-09-12T08:06:10;23.90;75.60
51007;DHT22;37034;47.886;-3.904;2022-09-12T08:08:38;24.00;75.10
51007;DHT22;37034;47.886;-3.904;2022-09-12T08:11:06;24.10;75.20
51007;DHT22;37034;47.886;-3.904;2022-09-12T08:13:32;24.20;74.50
51007;DHT22;37034;47.886;-3.904;2022-09-12T08:15:59;24.30;74.00
51007;DHT22;37034;47.886;-3.904;2022-09-12T08:18:26;24.30;74.30
51007;DHT22;37034;47.886;-3.904;2022-09-12T08:21:00;24.30;74.00
51007;DHT22;37034;47.886;-3.904;2022-09-12T08:23:26;24.40;74.70
51007;DHT22;37034;47.886;-3.904;2022-09-12T08:25:56;24.50;74.80
51007;DHT22;37034;47.886;-3.904;2022-09-12T08:28:23;24.60;74.50
51007;DHT22;37034;47.886;-3.904;2022-09-12T08:30:49;24.60;74.10
51007;DHT22;37034;47.886;-3.904;2022-09-12T08:33:15;24.70;74.20
51007;DHT22;37034;47.886;-3.904;2022-09-12T08:35:41;24.60;73.60
51007;DHT22;37034;47.886;-3.904;2022-09-12T08:38:06;24.70;73.90
51007;DHT22;37034;47.886;-3.904;2022-09-12T08:40:49;24.80;73.30
51007;DHT22;37034;47.886;-3.904;2022-09-12T08:43:46;24.70;73.80
51007;DHT22;37034;47.886;-3.904;2022-09-12T08:46:21;24.70;73.10
51007;DHT22;37034;47.886;-3.904;2022-09-12T08:48:47;24.70;74.00
51007;DHT22;37034;47.886;-3.904;2022-09-12T08:51:15;24.80;73.60
51007;DHT22;37034;47.886;-3.904;2022-09-12T08:53:42;24.90;73.70
51007;DHT22;37034;47.886;-3.904;2022-09-12T08:56:09;25.00;74.10
51007;DHT22;37034;47.886;-3.904;2022-09-12T08:58:41;25.20;74.40
51007;DHT22;37034;47.886;-3.904;2022-09-12T09:01:28;25.30;74.30
51007;DHT22;37034;47.886;-3.904;2022-09-12T09:04:03;25.50;73.90
51007;DHT22;37034;47.886;-3.904;2022-09-12T09:06:56;25.70;73.00
51007;DHT22;37034;47.886;-3.904;2022-09-12T09:12:15;25.80;72.90
51007;DHT22;37034;47.886;-3.904;2022-09-12T09:28:32;25.90;72.90
51007;DHT22;37034;47.886;-3.904;2022-09-12T09:31:02;25.90;72.60
51007;DHT22;37034;47.886;-3.904;2022-09-12T09:33:33;26.10;73.20
51007;DHT22;37034;47.886;-3.904;2022-09-12T09:36:02;26.10;72.90
51007;DHT22;37034;47.886;-3.904;2022-09-12T09:38:45;26.20;73.20
51007;DHT22;37034;47.886;-3.904;2022-09-12T09:44:16;26.30;72.50
51007;DHT22;37034;47.886;-3.904;2022-09-12T09:46:42;26.30;72.30
51007;DHT22;37034;47.886;-3.904;2022-09-12T09:49:11;26.30;71.60
51007;DHT22;37034;47.886;-3.904;2022-09-12T09:51:40;26.30;71.50
51007;DHT22;37034;47.886;-3.904;2022-09-12T09:54:22;26.30;71.20
51007;DHT22;37034;47.886;-3.904;2022-09-12T09:56:49;26.30;71.90
51007;DHT22;37034;47.886;-3.904;2022-09-12T09:59:25;26.30;72.10
51007;DHT22;37034;47.886;-3.904;2022-09-12T10:04:33;26.40;71.40
51007;DHT22;37034;47.886;-3.904;2022-09-12T10:07:01;26.50;71.40
51007;DHT22;37034;47.886;-3.904;2022-09-12T10:09:29;26.60;71.90
51007;DHT22;37034;47.886;-3.904;2022-09-12T10:11:58;26.80;72.30
51007;DHT22;37034;47.886;-3.904;2022-09-12T10:14:33;26.90;71.60
51007;DHT22;37034;47.886;-3.904;2022-09-12T10:17:30;27.00;70.90
51007;DHT22;37034;47.886;-3.904;2022-09-12T10:19:56;27.10;70.50
51007;DHT22;37034;47.886;-3.904;2022-09-12T10:22:25;27.20;70.60
51007;DHT22;37034;47.886;-3.904;2022-09-12T10:24:57;27.20;70.50
51007;DHT22;37034;47.886;-3.904;2022-09-12T10:27:32;27.30;70.60
51007;DHT22;37034;47.886;-3.904;2022-09-12T10:30:14;27.30;69.50
51007;DHT22;37034;47.886;-3.904;2022-09-12T10:32:42;27.30;69.30
51007;DHT22;37034;47.886;-3.904;2022-09-12T10:35:28;27.30;70.10
51007;DHT22;37034;47.886;-3.904;2022-09-12T10:37:56;27.40;69.60
51007;DHT22;37034;47.886;-3.904;2022-09-12T10:40:27;27.60;70.20
51007;DHT22;37034;47.886;-3.904;2022-09-12T10:42:58;27.70;69.50
51007;DHT22;37034;47.886;-3.904;2022-09-12T10:45:33;27.80;69.50
51007;DHT22;37034;47.886;-3.904;2022-09-12T10:48:28;27.90;68.90
51007;DHT22;37034;47.886;-3.904;2022-09-12T10:50:54;28.00;69.20
51007;DHT22;37034;47.886;-3.904;2022-09-12T10:53:38;28.10;69.20
51007;DHT22;37034;47.886;-3.904;2022-09-12T10:56:17;28.20;69.00
51007;DHT22;37034;47.886;-3.904;2022-09-12T11:01:23;28.20;68.30
51007;DHT22;37034;47.886;-3.904;2022-09-12T11:09:47;28.10;68.90
51007;DHT22;37034;47.886;-3.904;2022-09-12T11:29:51;28.30;67.70
51007;DHT22;37034;47.886;-3.904;2022-09-12T11:32:40;28.40;68.50
51007;DHT22;37034;47.886;-3.904;2022-09-12T11:42:50;28.50;67.10
51007;DHT22;37034;47.886;-3.904;2022-09-12T11:46:00;28.50;67.70
51007;DHT22;37034;47.886;-3.904;2022-09-12T11:51:04;28.50;67.50
51007;DHT22;37034;47.886;-3.904;2022-09-12T11:53:36;28.60;67.60
51007;DHT22;37034;47.886;-3.904;2022-09-12T11:56:14;28.70;67.00
51007;DHT22;37034;47.886;-3.904;2022-09-12T11:58:46;28.70;67.50
51007;DHT22;37034;47.886;-3.904;2022-09-12T12:01:27;28.80;68.00
51007;DHT22;37034;47.886;-3.904;2022-09-12T12:03:54;28.80;67.50
51007;DHT22;37034;47.886;-3.904;2022-09-12T12:06:31;28.80;67.40
51007;DHT22;37034;47.886;-3.904;2022-09-12T12:08:58;28.80;66.70
51007;DHT22;37034;47.886;-3.904;2022-09-12T12:11:34;28.70;68.50
51007;DHT22;37034;47.886;-3.904;2022-09-12T12:14:12;28.60;70.70
51007;DHT22;37034;47.886;-3.904;2022-09-12T12:16:40;28.60;70.00
51007;DHT22;37034;47.886;-3.904;2022-09-12T12:36:54;26.80;78.00
51007;DHT22;37034;47.886;-3.904;2022-09-12T12:41:59;26.60;79.30
51007;DHT22;37034;47.886;-3.904;2022-09-12T12:55:24;26.50;79.00
51007;DHT22;37034;47.886;-3.904;2022-09-12T12:57:58;26.60;79.80
51007;DHT22;37034;47.886;-3.904;2022-09-12T13:11:51;26.60;79.30
51007;DHT22;37034;47.886;-3.904;2022-09-12T13:14:04;26.50;78.70
51007;DHT22;37034;47.886;-3.904;2022-09-12T13:19:30;26.30;78.30
51007;DHT22;37034;47.886;-3.904;2022-09-12T13:22:02;26.20;78.30
51007;DHT22;37034;47.886;-3.904;2022-09-12T13:24:28;26.20;77.80
51007;DHT22;37034;47.886;-3.904;2022-09-12T13:26:54;26.30;78.10
51007;DHT22;37034;47.886;-3.904;2022-09-12T13:29:24;26.30;77.50
51007;DHT22;37034;47.886;-3.904;2022-09-12T13:31:58;26.30;77.10
51007;DHT22;37034;47.886;-3.904;2022-09-12T13:34:30;26.30;77.80
51007;DHT22;37034;47.886;-3.904;2022-09-12T13:39:46;26.30;77.00
51007;DHT22;37034;47.886;-3.904;2022-09-12T13:42:39;26.30;76.90
51007;DHT22;37034;47.886;-3.904;2022-09-12T13:45:17;26.40;77.60
51007;DHT22;37034;47.886;-3.904;2022-09-12T13:47:50;26.50;77.50
51007;DHT22;37034;47.886;-3.904;2022-09-12T13:50:19;26.60;77.60
51007;DHT22;37034;47.886;-3.904;2022-09-12T13:53:03;26.70;78.10
51007;DHT22;37034;47.886;-3.904;2022-09-12T13:58:01;26.90;78.20
51007;DHT22;37034;47.886;-3.904;2022-09-12T14:00:27;26.90;77.50
51007;DHT22;37034;47.886;-3.904;2022-09-12T14:02:57;26.90;77.90
51007;DHT22;37034;47.886;-3.904;2022-09-12T14:05:45;26.90;77.30
51007;DHT22;37034;47.886;-3.904;2022-09-12T14:08:13;26.80;77.10
51007;DHT22;37034;47.886;-3.904;2022-09-12T14:10:42;26.80;77.10
51007;DHT22;37034;47.886;-3.904;2022-09-12T14:13:19;26.80;76.80
51007;DHT22;37034;47.886;-3.904;2022-09-12T14:15:47;26.70;76.80
51007;DHT22;37034;47.886;-3.904;2022-09-12T14:18:28;26.60;76.70
51007;DHT22;37034;47.886;-3.904;2022-09-12T14:20:58;26.40;76.70
51007;DHT22;37034;47.886;-3.904;2022-09-12T14:23:31;26.30;76.00
51007;DHT22;37034;47.886;-3.904;2022-09-12T14:26:01;26.30;76.80
51007;DHT22;37034;47.886;-3.904;2022-09-12T14:28:28;26.30;76.30
51007;DHT22;37034;47.886;-3.904;2022-09-12T14:31:04;26.20;76.40
51007;DHT22;37034;47.886;-3.904;2022-09-12T14:33:54;26.30;76.40
51007;DHT22;37034;47.886;-3.904;2022-09-12T14:38:55;26.30;76.30
51007;DHT22;37034;47.886;-3.904;2022-09-12T14:41:31;26.30;76.90
51007;DHT22;37034;47.886;-3.904;2022-09-12T14:44:00;26.40;77.00
51007;DHT22;37034;47.886;-3.904;2022-09-12T14:46:34;26.40;76.60
51007;DHT22;37034;47.886;-3.904;2022-09-12T14:49:06;26.50;76.70
51007;DHT22;37034;47.886;-3.904;2022-09-12T14:51:54;26.40;76.30
51007;DHT22;37034;47.886;-3.904;2022-09-12T14:57:04;26.40;76.10
51007;DHT22;37034;47.886;-3.904;2022-09-12T15:10:28;26.70;75.90
51007;DHT22;37034;47.886;-3.904;2022-09-12T15:15:34;26.80;75.30
51007;DHT22;37034;47.886;-3.904;2022-09-12T15:18:00;27.00;75.70
51007;DHT22;37034;47.886;-3.904;2022-09-12T15:20:26;27.10;75.50
51007;DHT22;37034;47.886;-3.904;2022-09-12T15:22:52;27.30;74.70
51007;DHT22;37034;47.886;-3.904;2022-09-12T15:25:18;27.40;74.90
51007;DHT22;37034;47.886;-3.904;2022-09-12T15:27:47;27.40;74.90
51007;DHT22;37034;47.886;-3.904;2022-09-12T15:30:14;27.50;74.70
51007;DHT22;37034;47.886;-3.904;2022-09-12T15:32:42;27.50;74.10
51007;DHT22;37034;47.886;-3.904;2022-09-12T15:35:19;27.50;74.10
51007;DHT22;37034;47.886;-3.904;2022-09-12T15:37:46;27.50;73.90
51007;DHT22;37034;47.886;-3.904;2022-09-12T15:40:12;27.60;74.50
51007;DHT22;37034;47.886;-3.904;2022-09-12T15:42:38;27.60;73.90
51007;DHT22;37034;47.886;-3.904;2022-09-12T15:47:41;27.60;73.60
51007;DHT22;37034;47.886;-3.904;2022-09-12T15:50:07;27.70;73.30
51007;DHT22;37034;47.886;-3.904;2022-09-12T15:52:33;27.60;73.00
51007;DHT22;37034;47.886;-3.904;2022-09-12T15:54:58;27.60;72.80
51007;DHT22;37034;47.886;-3.904;2022-09-12T15:57:24;27.60;73.10
51007;DHT22;37034;47.886;-3.904;2022-09-12T15:59:50;27.60;73.30
51007;DHT22;37034;47.886;-3.904;2022-09-12T16:02:15;27.60;73.70
51007;DHT22;37034;47.886;-3.904;2022-09-12T16:04:41;27.60;73.30
51007;DHT22;37034;47.886;-3.904;2022-09-12T16:07:06;27.60;73.30
51007;DHT22;37034;47.886;-3.904;2022-09-12T16:09:32;27.60;73.60
51007;DHT22;37034;47.886;-3.904;2022-09-12T16:11:58;27.60;73.70
51007;DHT22;37034;47.886;-3.904;2022-09-12T16:14:24;27.60;74.00
51007;DHT22;37034;47.886;-3.904;2022-09-12T16:16:52;27.60;73.60
51007;DHT22;37034;47.886;-3.904;2022-09-12T16:19:20;27.60;74.00
51007;DHT22;37034;47.886;-3.904;2022-09-12T16:21:46;27.50;74.10
51007;DHT22;37034;47.886;-3.904;2022-09-12T16:24:12;27.60;75.00
51007;DHT22;37034;47.886;-3.904;2022-09-12T16:26:37;27.50;75.00
51007;DHT22;37034;47.886;-3.904;2022-09-12T16:29:03;27.40;75.10
51007;DHT22;37034;47.886;-3.904;2022-09-12T16:31:29;27.30;75.30
51007;DHT22;37034;47.886;-3.904;2022-09-12T16:33:55;27.20;76.10
51007;DHT22;37034;47.886;-3.904;2022-09-12T16:36:21;27.20;75.70
51007;DHT22;37034;47.886;-3.904;2022-09-12T16:38:49;27.20;75.20
51007;DHT22;37034;47.886;-3.904;2022-09-12T16:41:17;27.00;75.30
51007;DHT22;37034;47.886;-3.904;2022-09-12T16:43:44;27.10;75.60
51007;DHT22;37034;47.886;-3.904;2022-09-12T16:46:12;27.10;75.90
51007;DHT22;37034;47.886;-3.904;2022-09-12T16:48:50;27.10;76.10
51007;DHT22;37034;47.886;-3.904;2022-09-12T16:51:17;27.10;76.20
51007;DHT22;37034;47.886;-3.904;2022-09-12T16:53:47;27.10;76.50
51007;DHT22;37034;47.886;-3.904;2022-09-12T16:56:14;27.00;76.40
51007;DHT22;37034;47.886;-3.904;2022-09-12T16:58:40;26.80;75.90
51007;DHT22;37034;47.886;-3.904;2022-09-12T17:01:17;26.70;76.60
51007;DHT22;37034;47.886;-3.904;2022-09-12T17:03:43;26.60;77.00
51007;DHT22;37034;47.886;-3.904;2022-09-12T17:06:13;26.60;76.70
51007;DHT22;37034;47.886;-3.904;2022-09-12T17:08:41;26.60;76.80
51007;DHT22;37034;47.886;-3.904;2022-09-12T17:11:12;26.50;77.00
51007;DHT22;37034;47.886;-3.904;2022-09-12T17:13:38;26.50;77.20
51007;DHT22;37034;47.886;-3.904;2022-09-12T17:16:09;26.50;77.20
51007;DHT22;37034;47.886;-3.904;2022-09-12T17:18:36;26.50;77.30
51007;DHT22;37034;47.886;-3.904;2022-09-12T17:21:02;26.40;77.50
51007;DHT22;37034;47.886;-3.904;2022-09-12T17:23:28;26.40;77.30
51007;DHT22;37034;47.886;-3.904;2022-09-12T17:25:54;26.40;77.70
51007;DHT22;37034;47.886;-3.904;2022-09-12T17:28:20;26.40;77.90
51007;DHT22;37034;47.886;-3.904;2022-09-12T17:30:53;26.30;78.00
51007;DHT22;37034;47.886;-3.904;2022-09-12T17:33:19;26.40;78.50
51007;DHT22;37034;47.886;-3.904;2022-09-12T17:35:45;26.40;77.80
51007;DHT22;37034;47.886;-3.904;2022-09-12T17:38:10;26.40;78.00
51007;DHT22;37034;47.886;-3.904;2022-09-12T17:40:36;26.40;78.20
51007;DHT22;37034;47.886;-3.904;2022-09-12T17:43:02;26.30;78.20
51007;DHT22;37034;47.886;-3.904;2022-09-12T17:45:28;26.30;78.30
51007;DHT22;37034;47.886;-3.904;2022-09-12T17:47:53;26.30;78.60
51007;DHT22;37034;47.886;-3.904;2022-09-12T17:50:19;26.30;78.80
51007;DHT22;37034;47.886;-3.904;2022-09-12T17:52:46;26.20;79.00
51007;DHT22;37034;47.886;-3.904;2022-09-12T17:55:12;26.20;79.60
51007;DHT22;37034;47.886;-3.904;2022-09-12T17:57:39;26.20;79.10
51007;DHT22;37034;47.886;-3.904;2022-09-12T18:00:05;26.30;79.50
51007;DHT22;37034;47.886;-3.904;2022-09-12T18:02:31;26.30;79.70
51007;DHT22;37034;47.886;-3.904;2022-09-12T18:04:57;26.30;79.90
51007;DHT22;37034;47.886;-3.904;2022-09-12T18:07:23;26.20;80.20
51007;DHT22;37034;47.886;-3.904;2022-09-12T18:09:50;26.20;80.00
51007;DHT22;37034;47.886;-3.904;2022-09-12T18:12:16;26.20;80.40
51007;DHT22;37034;47.886;-3.904;2022-09-12T18:14:42;26.10;79.80
51007;DHT22;37034;47.886;-3.904;2022-09-12T18:17:08;26.20;79.90
51007;DHT22;37034;47.886;-3.904;2022-09-12T18:19:36;26.10;79.80
51007;DHT22;37034;47.886;-3.904;2022-09-12T18:22:03;26.10;80.20